createdAt,value
2022-10-23T00:01:26.243Z,1146.00
2022-10-23T00:03:57.882Z,1151.57
2022-10-23T00:06:26.073Z,1148.90
2022-10-23T00:08:53.222Z,1149.63
2022-10-23T00:11:22.870Z,1147.53
2022-10-23T00:13:51.074Z,1143.57
2022-10-23T00:16:18.218Z,1147.80
2022-10-23T00:18:45.791Z,1145.53
2022-10-23T00:21:13.749Z,1150.78
2022-10-23T00:23:41.078Z,1150.28
2022-10-23T00:26:11.112Z,1147.97
2022-10-23T00:28:38.652Z,1150.38
2022-10-23T00:31:06.342Z,1147.88
2022-10-23T00:33:33.878Z,1151.95
2022-10-23T00:36:01.052Z,1151.90
2022-10-23T00:38:28.419Z,1149.50
2022-10-23T00:40:55.531Z,1153.13
2022-10-23T00:43:24.142Z,1152.67
2022-10-23T00:45:51.445Z,1151.95
2022-10-23T00:48:18.687Z,1154.78
2022-10-23T00:50:47.082Z,1151.20
2022-10-23T00:53:16.144Z,1154.25
2022-10-23T00:55:46.990Z,1151.38
2022-10-23T00:58:15.209Z,1150.70
2022-10-23T01:00:48.512Z,1153.10
2022-10-23T01:03:17.064Z,1149.43
2022-10-23T01:05:53.647Z,1143.45
2022-10-23T01:08:28.089Z,1150.03
2022-10-23T01:10:59.292Z,1149.35
2022-10-23T01:13:30.208Z,1148.82
2022-10-23T01:16:03.262Z,1149.90
2022-10-23T01:19:06.787Z,1151.57
2022-10-23T01:22:17.018Z,1144.65
2022-10-23T01:24:52.822Z,1148.68
2022-10-23T01:27:27.683Z,1149.20
2022-10-23T01:30:00.811Z,1150.78
2022-10-23T01:32:44.495Z,1150.32
2022-10-23T01:35:12.095Z,1146.53
2022-10-23T01:37:51.982Z,1146.30
2022-10-23T01:40:23.838Z,1147.70
2022-10-23T01:42:53.543Z,1145.63
2022-10-23T01:45:31.343Z,1146.07
2022-10-23T01:47:58.807Z,1141.30
2022-10-23T01:50:26.262Z,1148.15
2022-10-23T01:53:00.563Z,1145.05
2022-10-23T01:55:27.937Z,1141.35
2022-10-23T01:57:57.750Z,1142.17
2022-10-23T02:00:34.342Z,1142.15
2022-10-23T02:03:04.419Z,1151.55
2022-10-23T02:05:33.903Z,1144.03
2022-10-23T02:08:03.118Z,1147.15
2022-10-23T02:10:52.042Z,1151.88
2022-10-23T02:13:43.606Z,1147.20
2022-10-23T02:16:15.699Z,1148.25
2022-10-23T02:18:52.205Z,1146.32
2022-10-23T02:21:24.403Z,1142.03
2022-10-23T02:23:56.391Z,1148.63
2022-10-23T02:26:29.809Z,1150.85
2022-10-23T02:31:40.236Z,1148.33
2022-10-23T02:34:07.553Z,1146.67
2022-10-23T02:36:34.834Z,1146.10
2022-10-23T02:39:02.712Z,1143.47
2022-10-23T02:41:38.850Z,1144.57
2022-10-23T02:44:08.778Z,1143.63
2022-10-23T02:46:42.373Z,1143.27
2022-10-23T02:49:09.662Z,1143.53
2022-10-23T02:51:46.003Z,1146.53
2022-10-23T02:54:52.863Z,1144.45
2022-10-23T02:57:29.883Z,1146.43
2022-10-23T03:00:16.862Z,1146.15
2022-10-23T03:02:43.969Z,1145.50
2022-10-23T03:05:16.421Z,1148.53
2022-10-23T03:07:44.304Z,1148.53
2022-10-23T03:10:11.686Z,1150.00
2022-10-23T03:12:39.128Z,1150.35
2022-10-23T03:15:07.511Z,1147.32
2022-10-23T03:17:34.865Z,1148.75
2022-10-23T03:20:02.742Z,1148.38
2022-10-23T03:22:29.901Z,1148.00
2022-10-23T03:24:57.195Z,1150.47
2022-10-23T03:27:24.323Z,1151.32
2022-10-23T03:29:51.590Z,1149.30
2022-10-23T03:32:19.653Z,1155.28
2022-10-23T03:34:46.842Z,1151.88
2022-10-23T03:37:14.038Z,1147.80
2022-10-23T03:39:41.194Z,1150.13
2022-10-23T03:42:08.442Z,1149.95
2022-10-23T03:44:35.708Z,1148.70
2022-10-23T03:47:03.942Z,1154.07
2022-10-23T03:49:31.091Z,1152.25
2022-10-23T03:52:03.599Z,1150.05
2022-10-23T03:54:31.252Z,1144.35
2022-10-23T03:56:58.417Z,1149.97
2022-10-23T03:59:27.116Z,1149.47
2022-10-23T04:01:54.507Z,1151.45
2022-10-23T04:04:24.473Z,1146.25
2022-10-23T04:06:51.716Z,1147.17
2022-10-23T04:09:20.243Z,1146.57
2022-10-23T04:11:47.549Z,1149.40
2022-10-23T04:14:14.749Z,1147.18
2022-10-23T04:16:42.081Z,1153.78
2022-10-23T04:19:09.481Z,1154.03
2022-10-23T04:21:36.670Z,1144.18
2022-10-23T04:24:04.025Z,1149.80
2022-10-23T04:26:31.265Z,1148.88
2022-10-23T04:28:58.382Z,1144.07
2022-10-23T04:31:25.564Z,1146.03
2022-10-23T04:33:52.736Z,1152.18
2022-10-23T04:36:29.590Z,1147.80
2022-10-23T04:38:59.467Z,1148.30
2022-10-23T04:41:26.975Z,1147.95
2022-10-23T04:43:54.187Z,1152.57
2022-10-23T04:46:21.326Z,1164.50
2022-10-23T04:48:49.813Z,1147.10
2022-10-23T04:51:27.112Z,1150.57
2022-10-23T04:54:17.618Z,1145.00
2022-10-23T04:56:51.813Z,1148.30
2022-10-23T04:59:21.433Z,1145.70
2022-10-23T05:01:49.377Z,1146.93
2022-10-23T05:04:16.821Z,1150.95
2022-10-23T05:07:02.719Z,1154.00
2022-10-23T05:10:08.569Z,1159.75
2022-10-23T05:12:45.542Z,1162.03
2022-10-23T05:15:12.787Z,1165.72
2022-10-23T05:17:42.691Z,1167.50
2022-10-23T05:20:12.714Z,1170.13
2022-10-23T05:22:41.941Z,1160.95
2022-10-23T05:25:12.043Z,1165.85
2022-10-23T05:27:41.718Z,1159.25
2022-10-23T05:30:12.231Z,1154.03
2022-10-23T05:32:39.927Z,1155.50
2022-10-23T05:35:09.083Z,1155.72
2022-10-23T05:37:40.555Z,1157.18
2022-10-23T05:40:12.681Z,1158.18
2022-10-23T05:42:41.927Z,1156.40
2022-10-23T05:45:11.505Z,1149.32
2022-10-23T05:48:05.826Z,1151.80
2022-10-23T05:51:08.525Z,1153.95
2022-10-23T05:53:47.235Z,1149.40
2022-10-23T05:56:39.098Z,1152.57
2022-10-23T05:59:10.194Z,1150.13
2022-10-23T06:01:49.424Z,1154.25
2022-10-23T06:04:25.079Z,1149.28
2022-10-23T06:07:15.051Z,1148.10
2022-10-23T06:09:44.284Z,1150.80
2022-10-23T06:12:11.483Z,1154.40
2022-10-23T06:14:39.646Z,1156.05
2022-10-23T06:17:06.898Z,1151.80
2022-10-23T06:19:40.378Z,1149.03
2022-10-23T06:22:07.767Z,1146.68
2022-10-23T06:24:46.504Z,1148.78
2022-10-23T06:27:18.647Z,1149.90
2022-10-23T06:29:47.092Z,1151.50
2022-10-23T06:32:14.297Z,1155.18
2022-10-23T06:34:46.792Z,1150.40
2022-10-23T06:37:14.055Z,1151.80
2022-10-23T06:39:45.415Z,1153.10
2022-10-23T06:42:38.513Z,1152.28
2022-10-23T06:45:33.969Z,1150.28
2022-10-23T06:48:13.078Z,1155.32
2022-10-23T06:51:12.307Z,1147.93
2022-10-23T06:53:43.690Z,1159.40
2022-10-23T06:56:35.031Z,1152.47
2022-10-23T06:59:07.564Z,1148.50
2022-10-23T07:01:35.378Z,1152.77
2022-10-23T07:04:02.800Z,1153.68
2022-10-23T07:06:30.844Z,1155.85
2022-10-23T07:08:58.167Z,1157.00
2022-10-23T07:11:54.534Z,1153.93
2022-10-23T07:14:32.027Z,1151.03
2022-10-23T07:17:00.818Z,1152.80
2022-10-23T07:19:29.199Z,1152.63
2022-10-23T07:21:58.236Z,1153.60
2022-10-23T07:24:38.405Z,1165.23
2022-10-23T07:27:14.209Z,1162.88
2022-10-23T07:29:42.061Z,1165.43
2022-10-23T07:32:09.301Z,1166.55
2022-10-23T07:34:55.157Z,1168.88
2022-10-23T07:37:31.293Z,1162.82
2022-10-23T07:40:01.171Z,1166.47
2022-10-23T07:42:28.373Z,1165.10
2022-10-23T07:44:55.514Z,1168.43
2022-10-23T07:47:23.301Z,1164.80
2022-10-23T07:49:52.218Z,1167.95
2022-10-23T07:52:20.629Z,1179.82
2022-10-23T07:55:07.131Z,1176.50
2022-10-23T07:57:35.953Z,1186.20
2022-10-23T08:00:12.152Z,1175.78
2022-10-23T08:02:42.865Z,1184.10
2022-10-23T08:05:11.521Z,1203.22
2022-10-23T08:07:47.184Z,1158.50
2022-10-23T08:10:14.398Z,1155.22
2022-10-23T08:12:44.177Z,1161.82
2022-10-23T08:15:12.403Z,1152.53
2022-10-23T08:17:51.261Z,1151.93
2022-10-23T08:20:43.155Z,1158.37
2022-10-23T08:23:12.322Z,1162.35
2022-10-23T08:25:40.666Z,1158.32
2022-10-23T08:28:09.516Z,1154.90
2022-10-23T08:30:44.383Z,1153.68
2022-10-23T08:33:12.158Z,1156.73
2022-10-23T08:35:39.431Z,1156.53
2022-10-23T08:38:07.850Z,1175.27
2022-10-23T08:40:44.590Z,1170.32
2022-10-23T08:43:33.059Z,1171.70
2022-10-23T08:46:17.880Z,1164.68
2022-10-23T08:49:16.342Z,1164.25
2022-10-23T08:51:56.411Z,1166.50
2022-10-23T08:54:26.567Z,1164.80
2022-10-23T08:57:02.871Z,1162.97
2022-10-23T08:59:40.289Z,1166.03
2022-10-23T09:02:22.003Z,1167.15
2022-10-23T09:04:51.749Z,1165.95
2022-10-23T09:07:37.215Z,1170.28
2022-10-23T09:10:04.367Z,1165.95
2022-10-23T09:12:31.864Z,1163.70
2022-10-23T09:15:28.319Z,1170.70
2022-10-23T09:18:06.565Z,1165.67
2022-10-23T09:20:34.770Z,1167.80
2022-10-23T09:23:07.622Z,1172.60
2022-10-23T09:25:38.280Z,1173.13
2022-10-23T09:28:05.974Z,1166.93
2022-10-23T09:30:38.789Z,1167.82
2022-10-23T09:33:15.364Z,1164.03
2022-10-23T09:35:58.441Z,1161.57
2022-10-23T09:38:31.696Z,1170.07
2022-10-23T09:41:02.700Z,1166.75
2022-10-23T09:43:30.214Z,1164.75
2022-10-23T09:46:04.997Z,1166.40
2022-10-23T09:48:34.339Z,1167.60
2022-10-23T09:51:04.574Z,1166.07
2022-10-23T09:53:36.227Z,1169.47
2022-10-23T09:56:24.697Z,1159.55
2022-10-23T09:58:58.575Z,1162.88
2022-10-23T10:01:36.311Z,1162.80
2022-10-23T10:04:40.184Z,1163.63
2022-10-23T10:07:24.330Z,1169.90
2022-10-23T10:09:53.038Z,1165.97
2022-10-23T10:12:31.329Z,1169.63
2022-10-23T10:15:16.701Z,1164.68
2022-10-23T10:17:48.550Z,1151.57
2022-10-23T10:20:24.450Z,1152.10
2022-10-23T10:22:54.463Z,1153.63
2022-10-23T10:25:21.591Z,1163.20
2022-10-23T10:28:00.921Z,1155.60
2022-10-23T10:30:30.810Z,1147.45
2022-10-23T10:33:10.486Z,1149.55
2022-10-23T10:35:50.530Z,1152.57
2022-10-23T10:38:17.645Z,1151.20
2022-10-23T10:41:12.006Z,1148.85
2022-10-23T10:44:08.747Z,1147.67
2022-10-23T10:46:42.827Z,1145.28
2022-10-23T10:49:48.695Z,1150.82
2022-10-23T10:52:49.244Z,1147.88
2022-10-23T10:55:19.604Z,1156.60
2022-10-23T10:57:55.807Z,1155.10
2022-10-23T11:00:25.331Z,1156.47
2022-10-23T11:02:55.939Z,1154.43
2022-10-23T11:05:31.172Z,1152.18
2022-10-23T11:08:10.456Z,1157.63
2022-10-23T11:10:39.785Z,1154.28
2022-10-23T11:13:07.084Z,1156.47
2022-10-23T11:15:41.110Z,1150.78
2022-10-23T11:18:14.131Z,1152.53
2022-10-23T11:20:56.846Z,1161.55
2022-10-23T11:23:42.148Z,1159.07
2022-10-23T11:26:19.585Z,1158.88
2022-10-23T11:28:52.960Z,1152.32
2022-10-23T11:31:23.563Z,1170.93
2022-10-23T11:33:59.622Z,1155.00
2022-10-23T11:36:32.800Z,1152.10
2022-10-23T11:39:07.890Z,1151.15
2022-10-23T11:41:34.992Z,1152.65
2022-10-23T11:44:05.030Z,1145.03
2022-10-23T11:46:39.281Z,1154.18
2022-10-23T11:49:19.718Z,1152.82
2022-10-23T11:51:46.871Z,1147.05
2022-10-23T11:54:24.259Z,1147.75
2022-10-23T11:57:11.148Z,1148.80
2022-10-23T11:59:50.540Z,1152.55
2022-10-23T12:02:38.231Z,1151.25
2022-10-23T12:05:07.882Z,1150.72
2022-10-23T12:07:37.603Z,1145.13
2022-10-23T12:10:19.710Z,1144.60
2022-10-23T12:12:55.923Z,1146.00
2022-10-23T12:15:23.884Z,1141.97
2022-10-23T12:17:54.006Z,1156.25
2022-10-23T12:20:32.538Z,1162.25
2022-10-23T12:23:05.584Z,1155.57
2022-10-23T12:25:35.533Z,1150.85
2022-10-23T12:28:17.187Z,1158.20
2022-10-23T12:31:02.974Z,1154.60
2022-10-23T12:33:33.680Z,1161.80
2022-10-23T12:36:22.523Z,1153.40
2022-10-23T12:38:50.035Z,1153.05
2022-10-23T12:41:24.930Z,1152.28
2022-10-23T12:43:54.074Z,1150.70
2022-10-23T12:46:30.277Z,1154.33
2022-10-23T12:48:58.536Z,1153.22
2022-10-23T12:51:31.320Z,1151.80
2022-10-23T12:53:58.751Z,1151.47
2022-10-23T12:56:28.528Z,1152.60
2022-10-23T12:59:02.352Z,1154.10
2022-10-23T13:01:31.105Z,1147.68
2022-10-23T13:04:10.676Z,1155.80
2022-10-23T13:06:39.319Z,1155.18
2022-10-23T13:09:08.167Z,1153.97
2022-10-23T13:11:49.503Z,1162.10
2022-10-23T13:14:39.313Z,1163.18
2022-10-23T13:17:10.728Z,1151.67
2022-10-23T13:19:38.317Z,1158.30
2022-10-23T13:22:14.582Z,1161.07
2022-10-23T13:24:41.852Z,1157.35
2022-10-23T13:27:27.212Z,1155.30
2022-10-23T13:29:54.474Z,1159.55
2022-10-23T13:32:26.305Z,1157.60
2022-10-23T13:35:04.016Z,1161.07
2022-10-23T13:40:25.581Z,1154.97
2022-10-23T13:42:54.159Z,1163.13
2022-10-23T13:45:24.435Z,1162.15
2022-10-23T13:47:51.766Z,1164.23
2022-10-23T13:50:19.482Z,1159.22
2022-10-23T13:52:47.625Z,1162.78
2022-10-23T13:55:24.724Z,1166.65
2022-10-23T13:57:51.975Z,1159.68
2022-10-23T14:00:22.328Z,1165.75
2022-10-23T14:02:49.451Z,1162.97
2022-10-23T14:05:16.576Z,1168.18
2022-10-23T14:07:43.896Z,1160.75
2022-10-23T14:10:11.146Z,1166.30
2022-10-23T14:12:43.347Z,1161.47
2022-10-23T14:15:11.399Z,1163.13
2022-10-23T14:17:38.452Z,1159.68
2022-10-23T14:20:06.545Z,1160.60
2022-10-23T14:22:34.084Z,1160.93
2022-10-23T14:25:01.242Z,1161.10
2022-10-23T14:27:29.810Z,1165.90
2022-10-23T14:29:57.341Z,1163.95
2022-10-23T14:32:24.435Z,1160.68
2022-10-23T14:34:53.939Z,1163.55
2022-10-23T14:37:21.770Z,1160.18
2022-10-23T14:39:50.240Z,1164.90
2022-10-23T14:42:17.991Z,1164.68
2022-10-23T14:44:44.942Z,1170.13
2022-10-23T14:47:12.522Z,1164.25
2022-10-23T14:49:40.218Z,1168.55
2022-10-23T14:52:07.462Z,1166.85
2022-10-23T14:54:36.206Z,1170.18
2022-10-23T14:57:03.618Z,1162.70
2022-10-23T14:59:31.105Z,1165.60
2022-10-23T15:01:58.312Z,1166.85
2022-10-23T15:04:25.665Z,1167.15
2022-10-23T15:06:53.273Z,1163.93
2022-10-23T15:09:20.422Z,1161.05
2022-10-23T15:11:47.924Z,1160.28
2022-10-23T15:14:15.172Z,1159.85
2022-10-23T15:16:42.457Z,1162.03
2022-10-23T15:19:13.542Z,1158.03
2022-10-23T15:21:44.603Z,1161.70
2022-10-23T15:24:11.846Z,1160.82
2022-10-23T15:26:39.593Z,1161.32
2022-10-23T15:29:06.742Z,1162.40
2022-10-23T15:31:45.128Z,1164.67
2022-10-23T15:34:14.079Z,1162.65
2022-10-23T15:36:42.508Z,1162.20
2022-10-23T15:39:11.398Z,1156.47
2022-10-23T15:41:40.449Z,1155.72
2022-10-23T15:44:08.075Z,1196.30
2022-10-23T15:46:37.318Z,1189.47
2022-10-23T15:49:04.863Z,1184.55
2022-10-23T15:51:32.083Z,1182.25
2022-10-23T15:54:00.790Z,1177.25
2022-10-23T15:56:28.050Z,1180.00
2022-10-23T15:58:55.141Z,1180.18
2022-10-23T16:01:22.404Z,1179.03
2022-10-23T16:03:50.348Z,1178.47
2022-10-23T16:06:18.086Z,1178.22
2022-10-23T16:08:45.427Z,1177.00
2022-10-23T16:11:18.864Z,1177.10
2022-10-23T16:13:46.263Z,1178.45
2022-10-23T16:16:13.622Z,1181.15
2022-10-23T16:18:41.110Z,1194.15
2022-10-23T16:21:08.649Z,1198.55
2022-10-23T16:23:35.766Z,1184.57
2022-10-23T16:26:06.148Z,1189.78
2022-10-23T16:28:33.826Z,1189.43
2022-10-23T16:31:01.025Z,1185.30
2022-10-23T16:33:27.819Z,1174.03
2022-10-23T16:35:55.025Z,1176.07
2022-10-23T16:38:23.347Z,1172.40
2022-10-23T16:40:51.746Z,1176.35
2022-10-23T16:43:36.935Z,1176.33
2022-10-23T16:46:18.984Z,1174.07
2022-10-23T16:48:45.826Z,1174.47
2022-10-23T16:51:15.622Z,1177.72
2022-10-23T16:53:43.611Z,1174.63
2022-10-23T16:56:12.002Z,1172.87
2022-10-23T16:58:42.373Z,1173.22
2022-10-23T17:01:18.395Z,1175.20
2022-10-23T17:03:48.169Z,1172.10
2022-10-23T17:06:18.054Z,1173.00
2022-10-23T17:08:45.263Z,1174.83
2022-10-23T17:11:23.722Z,1174.87
2022-10-23T17:14:00.135Z,1171.73
2022-10-23T17:16:40.753Z,1174.10
2022-10-23T17:19:20.642Z,1173.65
2022-10-23T17:21:55.117Z,1174.05
2022-10-23T17:24:22.990Z,1172.82
2022-10-23T17:26:50.493Z,1172.80
2022-10-23T17:29:18.202Z,1168.93
2022-10-23T17:31:47.662Z,1172.85
2022-10-23T17:34:17.158Z,1168.22
2022-10-23T17:36:48.770Z,1170.10
2022-10-23T17:39:18.466Z,1174.63
2022-10-23T17:41:45.898Z,1166.15
2022-10-23T17:44:12.700Z,1170.97
2022-10-23T17:46:39.602Z,1178.13
2022-10-23T17:49:06.784Z,1180.38
2022-10-23T17:51:34.974Z,1165.80
2022-10-23T17:54:05.639Z,1170.65
2022-10-23T17:56:34.174Z,1163.43
2022-10-23T17:59:15.580Z,1162.30
2022-10-23T18:01:47.764Z,1161.78
2022-10-23T18:04:16.266Z,1160.53
2022-10-23T18:06:46.510Z,1162.43
2022-10-23T18:09:13.295Z,1163.43
2022-10-23T18:11:45.211Z,1161.97
2022-10-23T18:14:16.121Z,1157.87
2022-10-23T18:16:42.935Z,1163.23
2022-10-23T18:19:10.684Z,1160.55
2022-10-23T18:21:37.955Z,1155.25
2022-10-23T18:24:05.086Z,1159.00
2022-10-23T18:26:34.954Z,1157.22
2022-10-23T18:29:04.358Z,1148.45
2022-10-23T18:31:31.232Z,1148.70
2022-10-23T18:34:01.393Z,1152.70
2022-10-23T18:36:33.500Z,1150.90
2022-10-23T18:39:00.323Z,1152.15
2022-10-23T18:41:27.996Z,1154.85
2022-10-23T18:43:55.183Z,1152.40
2022-10-23T18:46:22.251Z,1150.72
2022-10-23T18:48:52.846Z,1150.95
2022-10-23T18:51:25.578Z,1150.13
2022-10-23T18:53:52.811Z,1142.87
2022-10-23T18:56:23.157Z,1141.70
2022-10-23T18:58:58.118Z,1141.57
2022-10-23T19:01:27.185Z,1140.07
2022-10-23T19:06:23.651Z,1147.53
2022-10-23T19:08:50.732Z,1150.30
2022-10-23T19:11:20.452Z,1142.50
2022-10-23T19:13:47.390Z,1143.10
2022-10-23T19:16:22.854Z,1141.47
2022-10-23T19:18:57.578Z,1147.60
2022-10-23T19:21:31.160Z,1149.03
2022-10-23T19:24:01.521Z,1151.70
2022-10-23T19:26:30.683Z,1154.40
2022-10-23T19:28:58.037Z,1155.38
2022-10-23T19:31:26.381Z,1153.65
2022-10-23T19:33:53.716Z,1151.20
2022-10-23T19:36:23.474Z,1152.25
2022-10-23T19:38:50.803Z,1157.47
2022-10-23T19:41:18.727Z,1156.13
2022-10-23T19:43:45.548Z,1155.25
2022-10-23T19:46:12.783Z,1155.33
2022-10-23T19:48:44.609Z,1155.33
2022-10-23T19:51:15.125Z,1152.38
2022-10-23T19:53:42.518Z,1151.85
2022-10-23T19:56:11.996Z,1149.90
2022-10-23T19:58:40.046Z,1152.00
2022-10-23T20:01:08.983Z,1149.28
2022-10-23T20:03:36.181Z,1152.43
2022-10-23T20:06:03.196Z,1154.07
2022-10-23T20:08:32.710Z,1152.53
2022-10-23T20:11:01.967Z,1152.38
2022-10-23T20:13:28.817Z,1149.43
2022-10-23T20:15:56.147Z,1151.88
2022-10-23T20:18:23.000Z,1152.57
2022-10-23T20:20:49.756Z,1155.03
2022-10-23T20:23:16.532Z,1151.95
2022-10-23T20:25:43.431Z,1147.30
2022-10-23T20:28:12.881Z,1154.38
2022-10-23T20:30:43.958Z,1157.40
2022-10-23T20:33:10.695Z,1151.22
2022-10-23T20:35:42.046Z,1154.43
2022-10-23T20:38:09.760Z,1154.22
2022-10-23T20:40:36.563Z,1152.60
2022-10-23T20:43:03.328Z,1151.88
2022-10-23T20:45:30.417Z,1153.43
2022-10-23T20:47:57.554Z,1154.75
2022-10-23T20:50:24.878Z,1152.82
2022-10-23T20:52:51.865Z,1151.50
2022-10-23T20:55:19.536Z,1155.82
2022-10-23T20:57:46.835Z,1150.68
2022-10-23T21:00:15.219Z,1150.25
2022-10-23T21:02:45.783Z,1154.10
2022-10-23T21:05:14.482Z,1153.65
2022-10-23T21:07:41.616Z,1151.75
2022-10-23T21:10:09.006Z,1149.90
2022-10-23T21:12:36.166Z,1147.25
2022-10-23T21:15:03.375Z,1152.75
2022-10-23T21:17:35.597Z,1148.65
2022-10-23T21:20:02.978Z,1158.03
2022-10-23T21:22:29.646Z,1149.90
2022-10-23T21:24:58.287Z,1142.25
2022-10-23T21:27:25.375Z,1144.57
2022-10-23T21:29:52.502Z,1143.10
2022-10-23T21:32:20.763Z,1141.15
2022-10-23T21:34:48.043Z,1147.65
2022-10-23T21:37:15.255Z,1144.25
2022-10-23T21:39:43.610Z,1145.95
2022-10-23T21:42:11.737Z,1142.55
2022-10-23T21:44:38.954Z,1145.75
2022-10-23T21:47:05.701Z,1143.38
2022-10-23T21:49:32.871Z,1144.70
2022-10-23T21:52:00.157Z,1141.23
2022-10-23T21:54:27.303Z,1144.77
2022-10-23T21:56:54.742Z,1141.88
2022-10-23T21:59:24.061Z,1131.18
2022-10-23T22:01:51.690Z,1135.00
2022-10-23T22:04:19.778Z,1138.60
2022-10-23T22:06:48.536Z,1145.10
2022-10-23T22:09:19.385Z,1139.07
2022-10-23T22:11:46.785Z,1145.45
2022-10-23T22:14:13.970Z,1141.78
2022-10-23T22:16:42.074Z,1132.45
2022-10-23T22:19:12.168Z,1140.82
2022-10-23T22:21:39.424Z,1140.28
2022-10-23T22:24:07.023Z,1143.55
2022-10-23T22:26:43.107Z,1138.60
2022-10-23T22:29:12.905Z,1130.60
2022-10-23T22:31:44.060Z,1135.03
2022-10-23T22:34:25.389Z,1135.13
2022-10-23T22:37:04.451Z,1117.80
2022-10-23T22:39:31.600Z,1124.72
2022-10-23T22:41:58.878Z,1121.47
2022-10-23T22:44:26.083Z,1116.90
2022-10-23T22:46:53.264Z,1121.35
2022-10-23T22:49:20.443Z,1127.63
2022-10-23T22:51:47.587Z,1118.85
2022-10-23T22:54:14.674Z,1123.88
2022-10-23T22:56:42.462Z,1122.18
2022-10-23T22:59:09.628Z,1121.80
2022-10-23T23:01:39.660Z,1126.88
2022-10-23T23:04:19.499Z,1124.30
2022-10-23T23:06:54.537Z,1126.40
2022-10-23T23:09:21.805Z,1114.50
2022-10-23T23:11:52.694Z,1124.38
2022-10-23T23:14:23.531Z,1116.05
2022-10-23T23:16:52.563Z,1124.70
2022-10-23T23:19:19.986Z,1117.32
2022-10-23T23:21:47.244Z,1116.50
2022-10-23T23:24:14.654Z,1117.67
2022-10-23T23:26:41.809Z,1113.77
2022-10-23T23:29:08.996Z,1117.43
2022-10-23T23:31:36.199Z,1120.97
2022-10-23T23:34:03.425Z,1139.13
2022-10-23T23:36:30.751Z,1115.70
2022-10-23T23:38:58.380Z,1122.40
2022-10-23T23:41:29.657Z,1114.40
2022-10-23T23:43:57.785Z,1120.88
2022-10-23T23:46:25.187Z,1115.43
2022-10-23T23:48:52.365Z,1115.15
2022-10-23T23:51:22.835Z,1122.85
2022-10-23T23:53:50.177Z,1120.65
2022-10-23T23:56:17.699Z,1113.72
2022-10-23T23:58:45.167Z,1115.10
